Bitely, Michigan
Current Conditions -  °F | °C
As of 8:35 PM on Friday 24 Oct 2014 (Local Time) from KRQB Reporting Station
Overcast Overcast  
Wind Chill: 52°   Ceiling: 1100
Heat Index: 52°   Visibility: 10mi
Dew Point: 52°   Wind: 3mph
Humidity: 100%   Direction: 220°SW
Pressure: 29.96"   Gusts: NA
Location:  43.75°N, 85.86°W
Report Text: KRQB 250035Z AUTO 22003KT 10SM OVC011 11/11 A2996 RMK AO2 T01100110
Loading
Personal Weather Stations






























Interactive Weather Map
Tropical Storm Tracking
New forecast layout! Learn more

10-Day Weather Forecast

Advertisements
Track Severe Weather on mobile